This is the latest recevied weather packets stored in our database for station/object F1PPH-2. If no packets are shown the sender has not sent any weather packets the latest 10 day(s).
| Time | Temp. | Humidity | Pressure | Rain* | Wind** | Luminosity | Snow |
|---|---|---|---|---|---|---|---|
| 1777499990 | 21.67° C | 30% | 1006.7 hPa | - | - | - | - |
| 1777496389 | 22.22° C | 30% | 1006.3 hPa | - | - | - | - |
| 1777492789 | 22.78° C | 29% | 1005.7 hPa | - | - | - | - |
| 1777489189 | 23.89° C | 29% | 1005.1 hPa | - | - | - | - |
| 1777485591 | 28.33° C | 27% | 1004.7 hPa | - | - | - | - |
| 1777481989 | 32.22° C | 26% | 1004.2 hPa | - | - | - | - |
| 1777478392 | 32.78° C | 26% | 1004.3 hPa | - | - | - | - |
| 1777471973 | 33.89° C | 24% | 1005.1 hPa | - | - | - | - |
| 1777469092 | 34.44° C | 24% | 1005.1 hPa | - | - | - | - |
| 1777466213 | 37.22° C | 23% | 1005.6 hPa | - | - | - | - |
| 1777463333 | 38.89° C | 22% | 1006.3 hPa | - | - | - | - |
| 1777460451 | 37.78° C | 22% | 1006.2 hPa | - | - | - | - |
| 1777454692 | 32.22° C | 25% | 1006.4 hPa | - | - | - | - |
| 1777446050 | 17.78° C | 31% | 1006.4 hPa | - | - | - | - |
| 1777443169 | 15.56° C | 32% | 1006.2 hPa | - | - | - | - |
| 1777434529 | 12.78° C | 32% | 1005.6 hPa | - | - | - | - |
| 1777430929 | 13.33° C | 31% | 1005.7 hPa | - | - | - | - |
| 1777427329 | 14.44° C | 31% | 1005.8 hPa | - | - | - | - |
| 1777421568 | 16.67° C | 30% | 1006.2 hPa | - | - | - | - |
| 1777412208 | 16.67° C | 29% | 1006.7 hPa | - | - | - | - |
| 1777408608 | 18.33° C | 28% | 1006.8 hPa | - | - | - | - |
| 1777405674 | 19.44° C | 28% | 1006.6 hPa | - | - | - | - |
| 1777396691 | 28.89° C | 25% | 1006 hPa | - | - | - | - |
| 1777393091 | 28.89° C | 24% | 1006 hPa | - | - | - | - |
| 1777390210 | 28.89° C | 24% | 1006.1 hPa | - | - | - | - |
* Rain since midnight (hover to see other rain measurements)
** Current wind speed in m/s (hover to see current wind gust speed)